createdAt,value
2022-08-27T00:01:37.213Z,43.73
2022-08-27T00:03:40.910Z,44.96
2022-08-27T00:05:45.552Z,44.40
2022-08-27T00:07:49.653Z,43.82
2022-08-27T00:09:53.710Z,45.05
2022-08-27T00:11:59.681Z,45.04
2022-08-27T00:14:03.933Z,45.54
2022-08-27T00:16:09.773Z,46.85
2022-08-27T00:18:13.387Z,47.60
2022-08-27T00:20:18.958Z,47.37
2022-08-27T00:22:22.540Z,47.40
2022-08-27T00:24:26.909Z,48.65
2022-08-27T00:26:31.122Z,49.03
2022-08-27T00:28:38.688Z,49.64
2022-08-27T00:30:42.402Z,48.88
2022-08-27T00:32:46.601Z,49.66
2022-08-27T00:34:50.415Z,49.67
2022-08-27T00:36:54.425Z,50.52
2022-08-27T00:38:58.256Z,52.08
2022-08-27T00:41:02.333Z,52.03
2022-08-27T00:43:05.875Z,52.86
2022-08-27T00:45:10.328Z,53.48
2022-08-27T00:47:16.491Z,54.26
2022-08-27T00:49:20.392Z,54.25
2022-08-27T00:51:25.556Z,54.13
2022-08-27T00:53:34.401Z,55.87
2022-08-27T00:55:47.412Z,55.94
2022-08-27T00:57:58.310Z,56.43
2022-08-27T01:00:02.712Z,58.00
2022-08-27T01:02:21.574Z,57.52
2022-08-27T01:04:25.395Z,58.54
2022-08-27T01:06:32.680Z,58.96
2022-08-27T01:08:39.235Z,58.99
2022-08-27T01:10:43.567Z,59.85
2022-08-27T01:12:53.430Z,60.21
2022-08-27T01:15:05.265Z,59.40
2022-08-27T01:17:13.763Z,60.88
2022-08-27T01:19:26.907Z,61.41
2022-08-27T01:21:40.079Z,61.94
2022-08-27T01:24:03.050Z,62.63
2022-08-27T01:26:08.376Z,63.19
2022-08-27T01:28:13.106Z,64.15
2022-08-27T01:30:19.484Z,63.97
2022-08-27T01:32:27.324Z,65.19
2022-08-27T01:34:31.483Z,65.76
2022-08-27T01:36:35.153Z,66.16
2022-08-27T01:38:40.013Z,66.24
2022-08-27T01:40:44.090Z,66.55
2022-08-27T01:42:52.046Z,66.81
2022-08-27T01:44:57.168Z,67.38
2022-08-27T01:47:01.527Z,68.69
2022-08-27T01:49:05.413Z,69.39
2022-08-27T01:51:12.999Z,70.02
2022-08-27T01:53:19.624Z,69.78
2022-08-27T01:55:25.345Z,70.53
2022-08-27T01:57:29.122Z,69.44
2022-08-27T01:59:39.853Z,71.62
2022-08-27T02:01:44.163Z,71.91
2022-08-27T02:03:49.580Z,71.88
2022-08-27T02:05:53.821Z,73.66
2022-08-27T02:07:58.043Z,74.05
2022-08-27T02:10:03.896Z,73.27
2022-08-27T02:12:09.622Z,73.65
2022-08-27T02:14:13.969Z,73.98
2022-08-27T02:16:18.134Z,74.43
2022-08-27T02:18:22.529Z,74.52
2022-08-27T02:20:29.316Z,75.21
2022-08-27T02:22:33.749Z,75.79
2022-08-27T02:24:37.807Z,75.55
2022-08-27T02:26:41.478Z,76.04
2022-08-27T02:28:45.118Z,75.76
2022-08-27T02:30:48.954Z,76.20
2022-08-27T02:32:54.085Z,76.33
2022-08-27T02:34:58.417Z,77.18
2022-08-27T02:37:05.853Z,77.67
2022-08-27T02:39:12.495Z,77.70
2022-08-27T02:41:17.779Z,78.47
2022-08-27T02:43:24.914Z,78.59
2022-08-27T02:45:29.245Z,79.22
2022-08-27T02:47:32.987Z,80.00
2022-08-27T02:49:36.867Z,80.67
2022-08-27T02:51:42.560Z,81.08
2022-08-27T02:53:46.164Z,80.59
2022-08-27T02:55:50.257Z,79.86
2022-08-27T02:57:54.248Z,79.98
2022-08-27T02:59:58.088Z,80.26
2022-08-27T03:02:02.596Z,80.38
2022-08-27T03:04:06.517Z,80.46
2022-08-27T03:06:10.365Z,81.14
2022-08-27T03:08:14.244Z,82.21
2022-08-27T03:10:19.403Z,82.96
2022-08-27T03:12:24.936Z,83.16
2022-08-27T03:14:29.202Z,83.78
2022-08-27T03:16:35.823Z,83.66
2022-08-27T03:18:39.966Z,84.02
2022-08-27T03:20:45.592Z,84.06
2022-08-27T03:22:49.404Z,83.59
2022-08-27T03:24:53.443Z,83.97
2022-08-27T03:26:57.278Z,83.99
2022-08-27T03:29:04.029Z,85.05
2022-08-27T03:31:10.737Z,84.47
2022-08-27T03:33:14.616Z,83.75
2022-08-27T03:35:19.614Z,82.85
2022-08-27T03:37:23.674Z,83.14
2022-08-27T03:39:27.543Z,82.26
2022-08-27T03:41:45.382Z,81.65
2022-08-27T03:43:55.370Z,81.75
2022-08-27T03:46:03.153Z,81.96
2022-08-27T03:48:07.667Z,80.49
2022-08-27T03:50:12.380Z,80.17
2022-08-27T03:52:16.428Z,79.71
2022-08-27T03:54:20.328Z,79.96
2022-08-27T03:56:24.378Z,79.09
2022-08-27T03:58:27.939Z,78.38
2022-08-27T04:00:32.069Z,78.81
2022-08-27T04:02:35.988Z,79.59
2022-08-27T04:04:40.449Z,79.92
2022-08-27T04:06:44.433Z,80.59
2022-08-27T04:08:48.582Z,81.59
2022-08-27T04:10:52.514Z,81.59
2022-08-27T04:12:56.278Z,82.06
2022-08-27T04:15:00.154Z,81.92
2022-08-27T04:17:05.096Z,81.71
2022-08-27T04:19:09.252Z,81.29
2022-08-27T04:21:14.333Z,80.01
2022-08-27T04:23:18.527Z,79.89
2022-08-27T04:25:22.535Z,77.96
2022-08-27T04:27:27.644Z,78.38
2022-08-27T04:29:31.445Z,77.42
2022-08-27T04:31:36.763Z,76.50
2022-08-27T04:33:40.932Z,77.04
2022-08-27T04:35:44.870Z,76.95
2022-08-27T04:37:48.513Z,77.88
2022-08-27T04:39:52.512Z,77.81
2022-08-27T04:42:00.488Z,77.60
2022-08-27T04:44:05.846Z,78.10
2022-08-27T04:46:10.624Z,78.19
2022-08-27T04:48:15.191Z,78.29
2022-08-27T04:50:18.912Z,78.75
2022-08-27T04:52:23.484Z,78.79
2022-08-27T04:54:32.173Z,79.47
2022-08-27T04:56:40.512Z,79.60
2022-08-27T04:58:44.877Z,79.68
2022-08-27T05:00:49.949Z,80.71
2022-08-27T05:02:53.692Z,81.48
2022-08-27T05:04:57.445Z,81.97
2022-08-27T05:07:02.616Z,83.41
2022-08-27T05:09:06.742Z,83.30
2022-08-27T05:11:16.041Z,83.75
2022-08-27T05:13:23.677Z,83.45
2022-08-27T05:15:27.975Z,83.89
2022-08-27T05:17:33.801Z,83.84
2022-08-27T05:19:37.643Z,83.56
2022-08-27T05:21:46.402Z,83.57
2022-08-27T05:23:50.161Z,83.99
2022-08-27T05:25:55.023Z,84.51
2022-08-27T05:27:58.690Z,84.19
2022-08-27T05:30:02.478Z,84.57
2022-08-27T05:32:06.218Z,85.28
2022-08-27T05:34:11.690Z,85.50
2022-08-27T05:36:27.350Z,86.54
2022-08-27T05:38:31.682Z,86.46
2022-08-27T05:40:35.826Z,86.62
2022-08-27T05:42:39.579Z,86.81
2022-08-27T05:44:43.267Z,87.01
2022-08-27T05:46:47.280Z,87.33
2022-08-27T05:48:51.651Z,87.94
2022-08-27T05:50:55.350Z,88.66
2022-08-27T05:52:58.969Z,88.49
2022-08-27T05:55:02.564Z,89.26
2022-08-27T05:57:06.363Z,89.08
2022-08-27T05:59:28.363Z,89.82
2022-08-27T06:01:33.590Z,90.28
2022-08-27T06:03:38.471Z,90.74
2022-08-27T06:05:42.846Z,91.37
2022-08-27T06:07:49.584Z,91.24
2022-08-27T06:09:53.597Z,91.47
2022-08-27T06:11:58.365Z,91.47
2022-08-27T06:14:02.388Z,92.22
2022-08-27T06:16:07.310Z,92.34
2022-08-27T06:18:11.063Z,92.80
2022-08-27T06:20:14.701Z,92.67
2022-08-27T06:22:18.412Z,92.79
2022-08-27T06:24:22.063Z,92.69
2022-08-27T06:26:27.696Z,93.03
2022-08-27T06:28:32.336Z,93.42
2022-08-27T06:30:36.685Z,94.10
2022-08-27T06:32:40.704Z,93.64
2022-08-27T06:34:48.447Z,93.73
2022-08-27T06:36:52.036Z,93.65
2022-08-27T06:38:59.042Z,93.60
2022-08-27T06:41:04.551Z,93.33
2022-08-27T06:43:08.415Z,92.91
2022-08-27T06:45:12.260Z,92.76
2022-08-27T06:47:16.073Z,92.86
2022-08-27T06:49:25.104Z,93.34
2022-08-27T06:51:30.964Z,93.57
2022-08-27T06:53:34.537Z,93.94
2022-08-27T06:55:48.889Z,94.51
2022-08-27T06:57:53.226Z,94.20
2022-08-27T06:59:57.426Z,94.27
2022-08-27T07:02:01.216Z,94.58
2022-08-27T07:04:16.558Z,94.56
2022-08-27T07:06:20.496Z,94.85
2022-08-27T07:08:24.122Z,95.05
2022-08-27T07:10:27.781Z,95.20
2022-08-27T07:12:31.438Z,95.93
2022-08-27T07:14:38.277Z,96.99
2022-08-27T07:16:42.773Z,97.72
2022-08-27T07:18:50.701Z,97.96
2022-08-27T07:20:55.777Z,99.11
2022-08-27T07:23:00.446Z,98.46
2022-08-27T07:25:05.016Z,98.94
2022-08-27T07:27:09.464Z,99.62
2022-08-27T07:29:15.480Z,100.00
2022-08-27T07:31:20.885Z,100.00
2022-08-27T07:33:26.449Z,100.00
2022-08-27T07:35:35.583Z,100.00
2022-08-27T07:37:40.482Z,100.00
2022-08-27T07:39:44.399Z,100.00
2022-08-27T07:42:06.155Z,100.00
2022-08-27T07:44:34.227Z,100.00
2022-08-27T07:46:40.571Z,100.00
2022-08-27T07:48:47.109Z,100.00
2022-08-27T07:50:51.587Z,100.00
2022-08-27T07:52:55.306Z,100.00
2022-08-27T07:54:59.413Z,100.00
2022-08-27T07:57:03.426Z,100.00
2022-08-27T07:59:07.057Z,100.00
2022-08-27T08:01:11.117Z,100.00
2022-08-27T08:03:14.813Z,100.00
2022-08-27T08:05:18.406Z,100.00
2022-08-27T08:07:22.945Z,100.00
2022-08-27T08:09:27.084Z,100.00
2022-08-27T08:11:31.307Z,100.00
2022-08-27T08:13:35.109Z,100.00
2022-08-27T08:15:39.518Z,100.00
2022-08-27T08:17:43.557Z,100.00
2022-08-27T08:19:57.373Z,100.00
2022-08-27T08:22:11.471Z,100.00
2022-08-27T08:24:15.704Z,100.00
2022-08-27T08:26:19.630Z,100.00
2022-08-27T08:28:23.635Z,100.00
2022-08-27T08:30:28.131Z,100.00
2022-08-27T08:32:37.073Z,100.00
2022-08-27T08:34:40.914Z,100.00
2022-08-27T08:36:46.285Z,100.00
2022-08-27T08:38:57.548Z,100.00
2022-08-27T08:41:01.771Z,100.00
2022-08-27T08:43:07.467Z,100.00
2022-08-27T08:45:12.759Z,100.00
2022-08-27T08:47:25.760Z,100.00
2022-08-27T08:49:35.912Z,100.00
2022-08-27T08:51:42.441Z,100.00
2022-08-27T08:53:57.820Z,100.00
2022-08-27T08:56:04.043Z,100.00
2022-08-27T08:58:11.816Z,100.00
2022-08-27T09:00:16.431Z,100.00
2022-08-27T09:02:21.262Z,100.00
2022-08-27T09:04:25.268Z,100.00
2022-08-27T09:06:41.061Z,100.00
2022-08-27T09:08:45.583Z,100.00
2022-08-27T09:10:56.264Z,100.00
2022-08-27T09:13:04.710Z,100.00
2022-08-27T09:15:12.512Z,100.00
2022-08-27T09:17:19.969Z,100.00
2022-08-27T09:19:24.789Z,100.00
2022-08-27T09:21:35.684Z,100.00
2022-08-27T09:23:51.276Z,100.00
2022-08-27T09:25:55.533Z,100.00
2022-08-27T09:28:07.151Z,100.00
2022-08-27T09:30:16.009Z,100.00
2022-08-27T09:32:24.832Z,100.00
2022-08-27T09:34:35.761Z,100.00
2022-08-27T09:36:59.221Z,100.00
2022-08-27T09:39:07.107Z,100.00
2022-08-27T09:41:14.397Z,100.00
2022-08-27T09:43:18.468Z,100.00
2022-08-27T09:45:24.580Z,100.00
2022-08-27T09:47:28.682Z,100.00
2022-08-27T09:49:35.717Z,100.00
2022-08-27T09:51:41.706Z,100.00
2022-08-27T09:53:45.857Z,100.00
2022-08-27T09:55:51.688Z,100.00
2022-08-27T09:57:55.844Z,100.00
2022-08-27T10:00:00.082Z,100.00
2022-08-27T10:02:04.413Z,100.00
2022-08-27T10:04:18.117Z,100.00
2022-08-27T10:06:32.108Z,100.00
2022-08-27T10:08:47.845Z,100.00
2022-08-27T10:10:57.199Z,100.00
2022-08-27T10:13:10.214Z,100.00
2022-08-27T10:15:15.563Z,100.00
2022-08-27T10:17:26.576Z,100.00
2022-08-27T10:19:48.614Z,100.00
2022-08-27T10:21:57.668Z,100.00
2022-08-27T10:24:20.234Z,100.00
2022-08-27T10:26:23.891Z,100.00
2022-08-27T10:29:05.521Z,100.00
2022-08-27T10:31:20.510Z,100.00
2022-08-27T10:33:43.223Z,100.00
2022-08-27T10:35:54.852Z,100.00
2022-08-27T10:38:01.844Z,100.00
2022-08-27T10:40:11.358Z,100.00
2022-08-27T10:42:33.792Z,100.00
2022-08-27T10:44:40.618Z,100.00
2022-08-27T10:46:50.175Z,100.00
2022-08-27T10:49:00.280Z,100.00
2022-08-27T10:51:20.936Z,100.00
2022-08-27T10:53:31.306Z,100.00
2022-08-27T10:55:43.103Z,100.00
2022-08-27T10:58:00.816Z,100.00
2022-08-27T11:00:06.918Z,100.00
2022-08-27T11:02:29.614Z,100.00
2022-08-27T11:04:37.278Z,100.00
2022-08-27T11:06:44.794Z,100.00
2022-08-27T11:08:55.481Z,100.00
2022-08-27T11:11:49.791Z,100.00
2022-08-27T11:13:47.963Z,100.00
2022-08-27T11:15:54.691Z,100.00
2022-08-27T11:18:05.910Z,100.00
2022-08-27T11:20:20.040Z,100.00
2022-08-27T11:22:27.795Z,100.00
2022-08-27T11:24:49.918Z,100.00
2022-08-27T11:26:56.151Z,100.00
2022-08-27T11:29:07.105Z,100.00
2022-08-27T11:31:22.880Z,100.00
2022-08-27T11:33:34.494Z,100.00
2022-08-27T11:35:56.348Z,100.00
2022-08-27T11:38:03.355Z,100.00
2022-08-27T11:40:08.990Z,100.00
2022-08-27T11:42:15.784Z,100.00
2022-08-27T11:44:23.546Z,100.00
2022-08-27T11:46:40.824Z,100.00
2022-08-27T11:48:56.238Z,100.00
2022-08-27T11:51:04.032Z,100.00
2022-08-27T11:53:08.962Z,100.00
2022-08-27T11:55:15.898Z,100.00
2022-08-27T11:57:30.154Z,100.00
2022-08-27T11:59:35.111Z,100.00
2022-08-27T12:01:41.967Z,100.00
2022-08-27T12:03:45.682Z,100.00
2022-08-27T12:05:55.581Z,100.00
2022-08-27T12:08:00.941Z,100.00
2022-08-27T12:10:18.102Z,100.00
2022-08-27T12:12:40.498Z,100.00
2022-08-27T12:14:47.164Z,100.00
2022-08-27T12:17:00.188Z,100.00
2022-08-27T12:19:16.056Z,100.00
2022-08-27T12:21:25.644Z,100.00
2022-08-27T12:23:48.397Z,100.00
2022-08-27T12:26:02.317Z,100.00
2022-08-27T12:28:07.534Z,100.00
2022-08-27T12:30:40.304Z,100.00
2022-08-27T12:32:46.243Z,100.00
2022-08-27T12:34:59.081Z,100.00
2022-08-27T12:37:07.496Z,100.00
2022-08-27T12:39:18.701Z,100.00
2022-08-27T12:41:44.229Z,100.00
2022-08-27T12:43:50.995Z,100.00
2022-08-27T12:45:58.171Z,100.00
2022-08-27T12:48:02.238Z,100.00
2022-08-27T12:50:06.874Z,100.00
2022-08-27T12:52:33.608Z,100.00
2022-08-27T12:55:10.653Z,100.00
2022-08-27T12:57:23.385Z,100.00
2022-08-27T12:59:29.519Z,100.00
2022-08-27T13:01:33.210Z,100.00
2022-08-27T13:03:41.404Z,100.00
2022-08-27T13:05:46.779Z,100.00
2022-08-27T13:07:52.146Z,100.00
2022-08-27T13:09:57.475Z,100.00
2022-08-27T13:12:03.459Z,100.00
2022-08-27T13:14:12.916Z,100.00
2022-08-27T13:16:18.535Z,100.00
2022-08-27T13:18:22.979Z,100.00
2022-08-27T13:20:27.014Z,100.00
2022-08-27T13:22:33.329Z,100.00
2022-08-27T13:24:48.447Z,100.00
2022-08-27T13:26:54.973Z,100.00
2022-08-27T13:29:03.599Z,100.00
2022-08-27T13:31:09.354Z,100.00
2022-08-27T13:33:20.282Z,100.00
2022-08-27T13:35:24.973Z,100.00
2022-08-27T13:37:42.652Z,100.00
2022-08-27T13:39:46.875Z,100.00
2022-08-27T13:41:51.341Z,100.00
2022-08-27T13:43:59.142Z,100.00
2022-08-27T13:46:09.697Z,100.00
2022-08-27T13:48:13.912Z,100.00
2022-08-27T13:50:28.939Z,100.00
2022-08-27T13:52:34.382Z,100.00
2022-08-27T13:54:41.094Z,100.00
2022-08-27T13:56:52.166Z,100.00
2022-08-27T13:58:56.291Z,100.00
2022-08-27T14:01:13.882Z,100.00
2022-08-27T14:03:31.560Z,100.00
2022-08-27T14:05:37.995Z,100.00
2022-08-27T14:07:51.546Z,100.00
2022-08-27T14:09:57.351Z,100.00
2022-08-27T14:12:06.670Z,100.00
2022-08-27T14:14:10.609Z,100.00
2022-08-27T14:16:34.524Z,100.00
2022-08-27T14:21:05.045Z,100.00
2022-08-27T14:23:17.569Z,100.00
2022-08-27T14:25:22.379Z,100.00
2022-08-27T14:27:26.973Z,100.00
2022-08-27T14:29:30.707Z,100.00
2022-08-27T14:31:34.698Z,100.00
2022-08-27T14:33:38.471Z,100.00
2022-08-27T14:35:43.131Z,100.00
2022-08-27T14:37:47.534Z,100.00
2022-08-27T14:39:51.198Z,100.00
2022-08-27T14:41:55.536Z,100.00
2022-08-27T14:43:59.433Z,100.00
2022-08-27T14:46:04.591Z,100.00
2022-08-27T14:48:18.291Z,100.00
2022-08-27T14:50:22.903Z,100.00
2022-08-27T14:52:27.008Z,100.00
2022-08-27T14:54:33.542Z,100.00
2022-08-27T14:56:40.113Z,100.00
2022-08-27T14:58:46.365Z,100.00
2022-08-27T15:00:50.581Z,100.00
2022-08-27T15:02:59.182Z,100.00
2022-08-27T15:05:07.890Z,100.00
2022-08-27T15:07:15.850Z,100.00
2022-08-27T15:09:20.615Z,100.00
2022-08-27T15:11:44.568Z,100.00
2022-08-27T15:13:48.733Z,100.00
2022-08-27T15:15:52.516Z,100.00
2022-08-27T15:17:56.868Z,100.00
2022-08-27T15:20:00.655Z,100.00
2022-08-27T15:22:30.370Z,100.00
2022-08-27T15:24:40.893Z,100.00
2022-08-27T15:26:44.978Z,100.00
2022-08-27T15:28:49.064Z,100.00
2022-08-27T15:30:54.620Z,100.00
2022-08-27T15:32:58.759Z,100.00
2022-08-27T15:35:07.674Z,100.00
2022-08-27T15:37:11.777Z,100.00
2022-08-27T15:39:15.589Z,100.00
2022-08-27T15:41:19.509Z,100.00
2022-08-27T15:43:23.681Z,100.00
2022-08-27T15:45:27.948Z,100.00
2022-08-27T15:47:32.217Z,100.00
2022-08-27T15:49:36.126Z,100.00
2022-08-27T15:51:39.995Z,100.00
2022-08-27T15:53:44.063Z,100.00
2022-08-27T15:55:47.686Z,100.00
2022-08-27T15:57:51.428Z,100.00
2022-08-27T15:59:55.270Z,100.00
2022-08-27T16:01:58.999Z,100.00
2022-08-27T16:04:04.096Z,100.00
2022-08-27T16:06:08.163Z,99.92
2022-08-27T16:08:12.602Z,100.00
2022-08-27T16:10:19.372Z,99.10
2022-08-27T16:12:27.202Z,100.00
2022-08-27T16:14:31.388Z,95.48
2022-08-27T16:16:35.402Z,95.06
2022-08-27T16:18:41.926Z,93.96
2022-08-27T16:20:45.779Z,94.19
2022-08-27T16:22:49.392Z,88.39
2022-08-27T16:24:53.053Z,88.14
2022-08-27T16:26:56.778Z,88.25
2022-08-27T16:29:01.157Z,87.41
2022-08-27T16:31:05.573Z,87.76
2022-08-27T16:33:16.734Z,89.03
2022-08-27T16:35:21.145Z,86.11
2022-08-27T16:37:28.255Z,86.07
2022-08-27T16:39:34.547Z,82.90
2022-08-27T16:41:43.206Z,86.47
2022-08-27T16:43:49.566Z,81.40
2022-08-27T16:45:54.373Z,79.55
2022-08-27T16:48:16.993Z,79.62
2022-08-27T16:50:35.769Z,82.99
2022-08-27T16:52:46.079Z,79.00
2022-08-27T16:54:50.255Z,76.51
2022-08-27T16:56:54.031Z,76.60
2022-08-27T16:58:57.644Z,75.13
2022-08-27T17:01:06.019Z,72.49
2022-08-27T17:03:10.510Z,76.05
2022-08-27T17:07:38.177Z,74.15
2022-08-27T17:09:46.098Z,72.12
2022-08-27T17:11:55.395Z,71.94
2022-08-27T17:14:00.036Z,73.08
2022-08-27T17:16:04.640Z,72.28
2022-08-27T17:18:09.137Z,68.79
2022-08-27T17:20:14.183Z,71.20
2022-08-27T17:22:17.920Z,67.05
2022-08-27T17:24:21.726Z,66.74
2022-08-27T17:26:25.678Z,65.32
2022-08-27T17:28:29.403Z,67.29
2022-08-27T17:30:33.329Z,70.22
2022-08-27T17:32:39.564Z,66.83
2022-08-27T17:34:43.409Z,72.93
2022-08-27T17:36:49.658Z,71.88
2022-08-27T17:38:54.844Z,65.77
2022-08-27T17:40:59.275Z,65.45
2022-08-27T17:43:02.983Z,62.72
2022-08-27T17:45:07.241Z,60.02
2022-08-27T17:47:10.957Z,56.68
2022-08-27T17:49:15.941Z,62.13
2022-08-27T17:51:22.049Z,62.01
2022-08-27T17:53:25.767Z,62.42
2022-08-27T17:55:29.364Z,59.87
2022-08-27T17:57:40.791Z,57.17
2022-08-27T17:59:46.293Z,58.43
2022-08-27T18:01:49.953Z,57.25
2022-08-27T18:03:54.343Z,57.05
2022-08-27T18:05:58.195Z,57.65
2022-08-27T18:08:02.273Z,51.58
2022-08-27T18:10:06.019Z,54.84
2022-08-27T18:12:11.353Z,52.29
2022-08-27T18:14:18.287Z,51.81
2022-08-27T18:16:22.869Z,53.54
2022-08-27T18:18:26.562Z,54.22
2022-08-27T18:20:33.297Z,54.50
2022-08-27T18:22:40.906Z,56.64
2022-08-27T18:24:51.789Z,48.37
2022-08-27T18:26:55.664Z,53.05
2022-08-27T18:28:59.665Z,55.48
2022-08-27T18:31:05.625Z,49.00
2022-08-27T18:33:10.759Z,51.12
2022-08-27T18:35:19.648Z,52.83
2022-08-27T18:37:23.314Z,55.16
2022-08-27T18:39:26.889Z,52.80
2022-08-27T18:41:32.368Z,53.38
2022-08-27T18:43:37.568Z,46.50
2022-08-27T18:45:41.813Z,50.46
2022-08-27T18:47:45.990Z,47.35
2022-08-27T18:49:50.184Z,48.08
2022-08-27T18:51:54.404Z,51.62
2022-08-27T18:53:58.341Z,47.29
2022-08-27T18:56:02.864Z,50.79
2022-08-27T18:58:06.852Z,45.54
2022-08-27T19:00:11.899Z,46.46
2022-08-27T19:02:18.414Z,46.27
2022-08-27T19:04:24.591Z,46.75
2022-08-27T19:06:31.724Z,47.62
2022-08-27T19:08:35.416Z,42.75
2022-08-27T19:10:41.900Z,44.39
2022-08-27T19:12:48.901Z,44.65
2022-08-27T19:14:52.855Z,39.98
2022-08-27T19:16:57.472Z,42.76
2022-08-27T19:19:04.585Z,40.01
2022-08-27T19:21:08.431Z,42.58
2022-08-27T19:23:14.808Z,45.05
2022-08-27T19:25:26.098Z,43.11
2022-08-27T19:27:31.422Z,43.02
2022-08-27T19:29:35.169Z,45.00
2022-08-27T19:31:39.673Z,46.07
2022-08-27T19:33:44.910Z,43.76
2022-08-27T19:35:48.548Z,41.37
2022-08-27T19:37:54.879Z,41.41
2022-08-27T19:39:58.491Z,42.38
2022-08-27T19:42:02.344Z,41.54
2022-08-27T19:44:06.065Z,43.82
2022-08-27T19:46:10.757Z,39.89
2022-08-27T19:48:15.234Z,42.40
2022-08-27T19:50:20.882Z,44.53
2022-08-27T19:52:24.532Z,42.94
2022-08-27T19:54:32.589Z,39.99
2022-08-27T19:56:38.630Z,40.42
2022-08-27T19:58:43.614Z,40.38
2022-08-27T20:00:47.953Z,41.82
2022-08-27T20:02:51.857Z,41.68
2022-08-27T20:05:16.990Z,43.27
2022-08-27T20:07:23.092Z,41.08
2022-08-27T20:09:27.048Z,41.47
2022-08-27T20:11:31.481Z,41.43
2022-08-27T20:13:35.517Z,41.71
2022-08-27T20:15:41.718Z,36.88
2022-08-27T20:17:46.183Z,37.72
2022-08-27T20:19:53.881Z,38.32
2022-08-27T20:21:57.853Z,33.75
2022-08-27T20:24:02.307Z,38.69
2022-08-27T20:26:06.238Z,36.04
2022-08-27T20:28:35.255Z,37.75
2022-08-27T20:30:34.099Z,36.08
2022-08-27T20:32:37.828Z,35.61
2022-08-27T20:34:44.689Z,35.87
2022-08-27T20:36:48.638Z,34.80
2022-08-27T20:38:57.180Z,34.68
2022-08-27T20:41:01.031Z,34.88
2022-08-27T20:43:06.545Z,37.69
2022-08-27T20:45:12.338Z,36.86
2022-08-27T20:47:17.301Z,38.18
2022-08-27T20:49:23.228Z,38.63
2022-08-27T20:51:27.447Z,39.49
2022-08-27T20:53:32.301Z,37.17
2022-08-27T20:55:36.144Z,38.04
2022-08-27T20:58:03.094Z,37.11
2022-08-27T21:00:26.041Z,36.33
2022-08-27T21:02:30.405Z,34.95
2022-08-27T21:04:38.319Z,37.51
2022-08-27T21:06:41.874Z,37.57
2022-08-27T21:08:46.377Z,37.36
2022-08-27T21:10:52.089Z,35.88
2022-08-27T21:12:55.959Z,33.03
2022-08-27T21:15:00.315Z,31.86
2022-08-27T21:17:07.085Z,30.53
2022-08-27T21:19:12.128Z,30.50
2022-08-27T21:21:18.136Z,31.22
2022-08-27T21:23:21.669Z,30.81
2022-08-27T21:25:29.407Z,31.92
2022-08-27T21:27:34.826Z,33.57
2022-08-27T21:29:38.498Z,33.91
2022-08-27T21:31:42.456Z,36.18
2022-08-27T21:33:46.182Z,38.10
2022-08-27T21:35:50.206Z,39.22
2022-08-27T21:37:54.027Z,34.13
2022-08-27T21:39:58.328Z,32.41
2022-08-27T21:42:02.879Z,32.24
2022-08-27T21:44:06.837Z,32.01
2022-08-27T21:46:11.146Z,32.97
2022-08-27T21:48:15.039Z,33.15
2022-08-27T21:50:19.574Z,33.93
2022-08-27T21:52:23.431Z,32.89
2022-08-27T21:54:27.320Z,36.26
2022-08-27T21:56:34.964Z,33.11
2022-08-27T21:58:38.767Z,33.72
2022-08-27T22:00:47.154Z,34.56
2022-08-27T22:02:51.109Z,34.94
2022-08-27T22:04:58.723Z,34.05
2022-08-27T22:07:02.514Z,32.43
2022-08-27T22:09:09.172Z,32.66
2022-08-27T22:11:13.517Z,31.05
2022-08-27T22:13:17.858Z,33.87
2022-08-27T22:15:23.393Z,32.99
2022-08-27T22:17:27.052Z,32.80
2022-08-27T22:19:31.205Z,32.85
2022-08-27T22:21:34.946Z,31.60
2022-08-27T22:23:38.593Z,32.47
2022-08-27T22:25:46.925Z,32.68
2022-08-27T22:27:51.603Z,32.34
2022-08-27T22:29:55.234Z,32.01
2022-08-27T22:31:59.250Z,33.75
2022-08-27T22:34:06.600Z,34.49
2022-08-27T22:36:10.259Z,33.51
2022-08-27T22:38:16.610Z,34.54
2022-08-27T22:40:21.451Z,34.71
2022-08-27T22:42:25.160Z,36.56
2022-08-27T22:44:32.914Z,38.25
2022-08-27T22:46:36.683Z,39.50
2022-08-27T22:48:40.408Z,39.04
2022-08-27T22:50:44.277Z,39.62
2022-08-27T22:52:48.792Z,41.33
2022-08-27T22:54:54.824Z,44.72
2022-08-27T22:56:59.230Z,46.56
2022-08-27T22:59:03.069Z,48.76
2022-08-27T23:01:11.287Z,49.28
2022-08-27T23:03:15.195Z,47.87
2022-08-27T23:05:19.592Z,49.91
2022-08-27T23:07:23.447Z,50.34
2022-08-27T23:09:27.216Z,52.31
2022-08-27T23:11:32.745Z,53.90
2022-08-27T23:13:36.680Z,56.59
2022-08-27T23:15:41.319Z,55.71
2022-08-27T23:17:45.779Z,58.10
2022-08-27T23:19:49.564Z,58.83
2022-08-27T23:21:53.743Z,60.60
2022-08-27T23:23:57.453Z,61.55
2022-08-27T23:26:20.015Z,61.21
2022-08-27T23:28:24.326Z,61.05
2022-08-27T23:30:28.349Z,60.44
2022-08-27T23:32:32.082Z,60.14
2022-08-27T23:34:36.617Z,59.56
2022-08-27T23:36:40.282Z,59.54
2022-08-27T23:38:43.951Z,59.95
2022-08-27T23:40:48.245Z,62.04
2022-08-27T23:42:51.941Z,61.23
2022-08-27T23:44:55.694Z,61.34
2022-08-27T23:47:00.237Z,63.52
2022-08-27T23:49:03.911Z,62.32
2022-08-27T23:51:08.550Z,63.18
2022-08-27T23:53:12.830Z,62.21
2022-08-27T23:55:16.941Z,63.11
2022-08-27T23:57:20.768Z,63.38
2022-08-27T23:59:28.747Z,63.58
